sensor_id;sensor_type;location;lat;lon;timestamp;temperature;humidity
28297;DHT22;62078;49.366;8.172;2022-10-31T06:56:03;19.20;79.60
28297;DHT22;62078;49.366;8.172;2022-10-31T06:58:29;18.80;76.20
28297;DHT22;62078;49.366;8.172;2022-10-31T07:00:58;18.80;76.30
28297;DHT22;62078;49.366;8.172;2022-10-31T07:03:23;18.80;76.10
28297;DHT22;62078;49.366;8.172;2022-10-31T07:05:49;18.80;75.90
28297;DHT22;62078;49.366;8.172;2022-10-31T07:08:15;18.80;76.00
28297;DHT22;62078;49.366;8.172;2022-10-31T07:10:41;18.80;76.00
28297;DHT22;62078;49.366;8.172;2022-10-31T07:13:13;18.80;76.00
28297;DHT22;62078;49.366;8.172;2022-10-31T07:15:40;18.80;76.10
28297;DHT22;62078;49.366;8.172;2022-10-31T07:18:08;18.80;76.10
28297;DHT22;62078;49.366;8.172;2022-10-31T07:20:34;18.90;75.90
28297;DHT22;62078;49.366;8.172;2022-10-31T07:23:00;18.90;75.70
28297;DHT22;62078;49.366;8.172;2022-10-31T07:25:26;18.90;75.50
28297;DHT22;62078;49.366;8.172;2022-10-31T07:27:52;19.00;75.40
28297;DHT22;62078;49.366;8.172;2022-10-31T07:30:18;19.00;75.20
28297;DHT22;62078;49.366;8.172;2022-10-31T07:32:49;19.10;75.60
28297;DHT22;62078;49.366;8.172;2022-10-31T07:35:20;19.10;73.00
28297;DHT22;62078;49.366;8.172;2022-10-31T07:37:46;19.10;70.40
28297;DHT22;62078;49.366;8.172;2022-10-31T07:40:12;19.10;69.10
28297;DHT22;62078;49.366;8.172;2022-10-31T07:42:43;19.10;68.30
28297;DHT22;62078;49.366;8.172;2022-10-31T07:45:11;19.20;68.40
28297;DHT22;62078;49.366;8.172;2022-10-31T07:47:48;19.10;67.80
28297;DHT22;62078;49.366;8.172;2022-10-31T07:50:25;19.30;67.00
28297;DHT22;62078;49.366;8.172;2022-10-31T07:53:01;19.20;68.10
28297;DHT22;62078;49.366;8.172;2022-10-31T07:55:28;19.30;66.70
28297;DHT22;62078;49.366;8.172;2022-10-31T07:58:02;19.20;66.50
28297;DHT22;62078;49.366;8.172;2022-10-31T08:00:28;19.20;66.50
28297;DHT22;62078;49.366;8.172;2022-10-31T08:05:28;19.10;66.70
28297;DHT22;62078;49.366;8.172;2022-10-31T08:07:54;19.10;66.70
28297;DHT22;62078;49.366;8.172;2022-10-31T08:10:21;19.10;66.70
28297;DHT22;62078;49.366;8.172;2022-10-31T08:12:47;19.00;66.80
28297;DHT22;62078;49.366;8.172;2022-10-31T08:15:13;19.00;67.10
28297;DHT22;62078;49.366;8.172;2022-10-31T08:17:39;19.00;67.30
28297;DHT22;62078;49.366;8.172;2022-10-31T08:20:05;19.00;67.50
28297;DHT22;62078;49.366;8.172;2022-10-31T08:22:31;19.00;67.80
28297;DHT22;62078;49.366;8.172;2022-10-31T08:24:57;19.00;67.90
28297;DHT22;62078;49.366;8.172;2022-10-31T08:27:23;19.00;68.70
28297;DHT22;62078;49.366;8.172;2022-10-31T08:29:48;19.00;68.20
28297;DHT22;62078;49.366;8.172;2022-10-31T08:32:14;19.00;68.40
28297;DHT22;62078;49.366;8.172;2022-10-31T08:34:40;19.00;68.60
28297;DHT22;62078;49.366;8.172;2022-10-31T08:37:06;19.00;68.90
28297;DHT22;62078;49.366;8.172;2022-10-31T08:39:31;18.90;69.10
28297;DHT22;62078;49.366;8.172;2022-10-31T08:41:57;18.90;69.50
28297;DHT22;62078;49.366;8.172;2022-10-31T08:44:23;18.90;69.50
28297;DHT22;62078;49.366;8.172;2022-10-31T08:46:48;19.00;69.80
28297;DHT22;62078;49.366;8.172;2022-10-31T08:49:14;18.90;69.70
28297;DHT22;62078;49.366;8.172;2022-10-31T08:51:40;18.80;69.70
28297;DHT22;62078;49.366;8.172;2022-10-31T08:54:05;18.60;69.90
28297;DHT22;62078;49.366;8.172;2022-10-31T08:56:31;18.50;70.30
28297;DHT22;62078;49.366;8.172;2022-10-31T08:58:57;18.40;70.80
28297;DHT22;62078;49.366;8.172;2022-10-31T09:01:23;18.40;71.60
28297;DHT22;62078;49.366;8.172;2022-10-31T09:03:49;18.30;72.20
28297;DHT22;62078;49.366;8.172;2022-10-31T09:06:15;18.30;72.80
28297;DHT22;62078;49.366;8.172;2022-10-31T09:08:41;18.20;73.10
28297;DHT22;62078;49.366;8.172;2022-10-31T09:11:07;18.20;73.40
28297;DHT22;62078;49.366;8.172;2022-10-31T09:13:33;18.10;73.80
28297;DHT22;62078;49.366;8.172;2022-10-31T09:15:58;18.10;74.00
28297;DHT22;62078;49.366;8.172;2022-10-31T09:18:25;18.00;74.10
28297;DHT22;62078;49.366;8.172;2022-10-31T09:20:53;18.00;74.40
28297;DHT22;62078;49.366;8.172;2022-10-31T09:23:21;18.00;74.60
28297;DHT22;62078;49.366;8.172;2022-10-31T09:25:48;18.00;74.50
28297;DHT22;62078;49.366;8.172;2022-10-31T09:28:17;18.00;74.70
28297;DHT22;62078;49.366;8.172;2022-10-31T09:30:46;18.00;74.90
28297;DHT22;62078;49.366;8.172;2022-10-31T09:33:13;18.00;75.30
28297;DHT22;62078;49.366;8.172;2022-10-31T09:35:40;18.00;75.20
28297;DHT22;62078;49.366;8.172;2022-10-31T09:38:09;18.00;75.10
28297;DHT22;62078;49.366;8.172;2022-10-31T09:40:40;18.00;75.50
28297;DHT22;62078;49.366;8.172;2022-10-31T09:43:25;18.00;75.90
28297;DHT22;62078;49.366;8.172;2022-10-31T09:51:34;18.00;76.00
28297;DHT22;62078;49.366;8.172;2022-10-31T09:56:33;18.10;76.40
28297;DHT22;62078;49.366;8.172;2022-10-31T09:59:02;18.10;76.40
28297;DHT22;62078;49.366;8.172;2022-10-31T10:01:48;18.10;76.60
28297;DHT22;62078;49.366;8.172;2022-10-31T10:06:56;18.10;77.00
28297;DHT22;62078;49.366;8.172;2022-10-31T10:09:26;18.20;76.70
28297;DHT22;62078;49.366;8.172;2022-10-31T10:23:24;18.20;76.70
28297;DHT22;62078;49.366;8.172;2022-10-31T10:26:13;18.20;76.70
28297;DHT22;62078;49.366;8.172;2022-10-31T10:28:44;18.20;76.80
28297;DHT22;62078;49.366;8.172;2022-10-31T10:31:15;18.30;76.80
28297;DHT22;62078;49.366;8.172;2022-10-31T10:34:10;18.20;76.90
28297;DHT22;62078;49.366;8.172;2022-10-31T10:36:50;18.30;77.30
28297;DHT22;62078;49.366;8.172;2022-10-31T10:39:30;18.30;77.30
28297;DHT22;62078;49.366;8.172;2022-10-31T10:41:59;18.30;77.50
28297;DHT22;62078;49.366;8.172;2022-10-31T10:44:48;18.30;77.40
28297;DHT22;62078;49.366;8.172;2022-10-31T10:47:42;18.30;77.60
28297;DHT22;62078;49.366;8.172;2022-10-31T10:50:22;18.30;77.80
28297;DHT22;62078;49.366;8.172;2022-10-31T10:53:03;18.30;77.60
28297;DHT22;62078;49.366;8.172;2022-10-31T10:55:50;18.40;77.50
28297;DHT22;62078;49.366;8.172;2022-10-31T10:58:18;18.40;77.30
28297;DHT22;62078;49.366;8.172;2022-10-31T11:00:46;18.40;77.30
28297;DHT22;62078;49.366;8.172;2022-10-31T11:03:13;18.40;77.00
28297;DHT22;62078;49.366;8.172;2022-10-31T11:08:31;18.40;76.90
28297;DHT22;62078;49.366;8.172;2022-10-31T11:13:47;18.50;76.20
28297;DHT22;62078;49.366;8.172;2022-10-31T11:16:27;18.50;75.80
28297;DHT22;62078;49.366;8.172;2022-10-31T11:18:53;18.50;75.70
28297;DHT22;62078;49.366;8.172;2022-10-31T11:21:30;18.50;75.60
28297;DHT22;62078;49.366;8.172;2022-10-31T11:26:38;18.60;75.50
28297;DHT22;62078;49.366;8.172;2022-10-31T11:29:09;18.60;75.30
28297;DHT22;62078;49.366;8.172;2022-10-31T11:31:37;18.60;75.30
28297;DHT22;62078;49.366;8.172;2022-10-31T11:36:48;18.60;75.20
28297;DHT22;62078;49.366;8.172;2022-10-31T11:39:21;18.60;75.20
28297;DHT22;62078;49.366;8.172;2022-10-31T11:41:48;18.70;75.20
28297;DHT22;62078;49.366;8.172;2022-10-31T11:44:22;18.60;75.10
28297;DHT22;62078;49.366;8.172;2022-10-31T11:46:54;18.70;75.20
28297;DHT22;62078;49.366;8.172;2022-10-31T11:49:28;18.70;75.30
28297;DHT22;62078;49.366;8.172;2022-10-31T11:51:57;18.70;75.20
28297;DHT22;62078;49.366;8.172;2022-10-31T11:54:28;18.70;75.30
28297;DHT22;62078;49.366;8.172;2022-10-31T11:56:55;18.70;75.20
28297;DHT22;62078;49.366;8.172;2022-10-31T11:59:28;18.70;75.10
28297;DHT22;62078;49.366;8.172;2022-10-31T12:01:58;18.70;75.10
28297;DHT22;62078;49.366;8.172;2022-10-31T12:04:39;18.70;75.10
28297;DHT22;62078;49.366;8.172;2022-10-31T12:07:06;18.70;75.10
28297;DHT22;62078;49.366;8.172;2022-10-31T12:09:36;18.70;75.10
28297;DHT22;62078;49.366;8.172;2022-10-31T12:12:25;18.70;75.00
28297;DHT22;62078;49.366;8.172;2022-10-31T12:31:39;18.70;75.10
28297;DHT22;62078;49.366;8.172;2022-10-31T12:37:28;18.70;75.10
28297;DHT22;62078;49.366;8.172;2022-10-31T12:43:07;18.70;75.00
28297;DHT22;62078;49.366;8.172;2022-10-31T12:45:53;18.70;75.10
28297;DHT22;62078;49.366;8.172;2022-10-31T12:59:04;18.70;75.00
28297;DHT22;62078;49.366;8.172;2022-10-31T13:01:34;18.70;74.90
28297;DHT22;62078;49.366;8.172;2022-10-31T13:06:35;18.80;75.00
28297;DHT22;62078;49.366;8.172;2022-10-31T13:09:07;18.70;74.90
28297;DHT22;62078;49.366;8.172;2022-10-31T13:11:44;18.70;75.00
28297;DHT22;62078;49.366;8.172;2022-10-31T13:16:47;18.70;75.00
28297;DHT22;62078;49.366;8.172;2022-10-31T13:19:21;18.70;75.00
28297;DHT22;62078;49.366;8.172;2022-10-31T13:22:22;18.70;74.90
28297;DHT22;62078;49.366;8.172;2022-10-31T13:33:01;18.80;74.90
28297;DHT22;62078;49.366;8.172;2022-10-31T13:35:40;18.80;74.80
28297;DHT22;62078;49.366;8.172;2022-10-31T13:38:37;18.80;74.80
28297;DHT22;62078;49.366;8.172;2022-10-31T13:44:20;18.80;74.80
28297;DHT22;62078;49.366;8.172;2022-10-31T13:46:50;18.80;74.80
28297;DHT22;62078;49.366;8.172;2022-10-31T13:54:49;18.80;74.90
28297;DHT22;62078;49.366;8.172;2022-10-31T13:57:37;18.80;75.10
28297;DHT22;62078;49.366;8.172;2022-10-31T14:00:06;18.80;75.00
28297;DHT22;62078;49.366;8.172;2022-10-31T14:02:34;18.80;75.10
28297;DHT22;62078;49.366;8.172;2022-10-31T14:05:06;18.80;75.30
28297;DHT22;62078;49.366;8.172;2022-10-31T14:07:45;18.80;75.40
28297;DHT22;62078;49.366;8.172;2022-10-31T14:10:31;18.80;75.70
28297;DHT22;62078;49.366;8.172;2022-10-31T14:13:21;18.80;75.80
28297;DHT22;62078;49.366;8.172;2022-10-31T14:15:58;18.80;75.80
28297;DHT22;62078;49.366;8.172;2022-10-31T14:18:33;18.80;75.80
28297;DHT22;62078;49.366;8.172;2022-10-31T14:20:59;18.80;75.80
28297;DHT22;62078;49.366;8.172;2022-10-31T14:26:18;18.80;76.10
28297;DHT22;62078;49.366;8.172;2022-10-31T14:28:45;18.80;76.10
28297;DHT22;62078;49.366;8.172;2022-10-31T14:31:37;18.80;76.10
28297;DHT22;62078;49.366;8.172;2022-10-31T14:34:25;18.80;76.10
28297;DHT22;62078;49.366;8.172;2022-10-31T14:37:52;18.80;75.90
28297;DHT22;62078;49.366;8.172;2022-10-31T14:48:37;18.80;76.00
28297;DHT22;62078;49.366;8.172;2022-10-31T14:51:21;18.80;76.00
28297;DHT22;62078;49.366;8.172;2022-10-31T14:53:48;18.80;75.90
28297;DHT22;62078;49.366;8.172;2022-10-31T14:57:20;18.80;75.90
28297;DHT22;62078;49.366;8.172;2022-10-31T14:59:15;18.80;76.60
28297;DHT22;62078;49.366;8.172;2022-10-31T15:02:09;18.80;75.90
28297;DHT22;62078;49.366;8.172;2022-10-31T15:04:38;18.80;76.10
28297;DHT22;62078;49.366;8.172;2022-10-31T15:09:32;18.70;76.00
28297;DHT22;62078;49.366;8.172;2022-10-31T20:01:08;18.80;76.40
28297;DHT22;62078;49.366;8.172;2022-10-31T20:03:38;18.70;77.00
28297;DHT22;62078;49.366;8.172;2022-10-31T20:06:05;18.60;76.90
28297;DHT22;62078;49.366;8.172;2022-10-31T20:08:31;18.70;77.10
28297;DHT22;62078;49.366;8.172;2022-10-31T20:10:59;18.70;77.00
28297;DHT22;62078;49.366;8.172;2022-10-31T20:13:27;18.60;76.90
28297;DHT22;62078;49.366;8.172;2022-10-31T20:15:57;18.60;76.90
28297;DHT22;62078;49.366;8.172;2022-10-31T20:18:23;18.60;76.90
28297;DHT22;62078;49.366;8.172;2022-10-31T20:20:50;18.60;76.90
28297;DHT22;62078;49.366;8.172;2022-10-31T20:23:17;18.60;76.90
28297;DHT22;62078;49.366;8.172;2022-10-31T20:25:49;18.60;76.90
28297;DHT22;62078;49.366;8.172;2022-10-31T20:28:15;18.60;77.00
28297;DHT22;62078;49.366;8.172;2022-10-31T20:30:41;18.60;77.00
28297;DHT22;62078;49.366;8.172;2022-10-31T20:33:06;18.60;76.90
28297;DHT22;62078;49.366;8.172;2022-10-31T20:35:38;18.60;76.80
28297;DHT22;62078;49.366;8.172;2022-10-31T20:38:06;18.60;76.90
28297;DHT22;62078;49.366;8.172;2022-10-31T20:40:32;18.60;76.80
28297;DHT22;62078;49.366;8.172;2022-10-31T20:43:00;18.60;76.80
28297;DHT22;62078;49.366;8.172;2022-10-31T20:45:26;18.60;76.80
28297;DHT22;62078;49.366;8.172;2022-10-31T20:47:53;18.60;76.70
28297;DHT22;62078;49.366;8.172;2022-10-31T20:50:18;18.60;76.80
28297;DHT22;62078;49.366;8.172;2022-10-31T20:52:44;18.70;76.80
28297;DHT22;62078;49.366;8.172;2022-10-31T20:55:10;18.60;76.80
28297;DHT22;62078;49.366;8.172;2022-10-31T20:57:35;18.70;76.90
28297;DHT22;62078;49.366;8.172;2022-10-31T21:00:01;18.60;76.70
28297;DHT22;62078;49.366;8.172;2022-10-31T21:02:27;18.70;76.70
28297;DHT22;62078;49.366;8.172;2022-10-31T21:04:53;18.60;76.70
28297;DHT22;62078;49.366;8.172;2022-10-31T21:07:18;18.60;76.90
28297;DHT22;62078;49.366;8.172;2022-10-31T21:09:44;18.60;76.70
28297;DHT22;62078;49.366;8.172;2022-10-31T21:12:10;18.60;76.60
28297;DHT22;62078;49.366;8.172;2022-10-31T21:14:35;18.60;76.60
28297;DHT22;62078;49.366;8.172;2022-10-31T21:17:02;18.60;76.60
28297;DHT22;62078;49.366;8.172;2022-10-31T21:19:28;18.60;76.60
28297;DHT22;62078;49.366;8.172;2022-10-31T21:21:54;18.60;76.60
28297;DHT22;62078;49.366;8.172;2022-10-31T21:24:20;18.60;76.60
28297;DHT22;62078;49.366;8.172;2022-10-31T21:26:48;18.70;76.80
28297;DHT22;62078;49.366;8.172;2022-10-31T21:29:15;18.60;76.60
28297;DHT22;62078;49.366;8.172;2022-10-31T21:31:41;18.60;76.60
28297;DHT22;62078;49.366;8.172;2022-10-31T21:34:07;18.60;76.50
28297;DHT22;62078;49.366;8.172;2022-10-31T21:36:33;18.60;76.50
28297;DHT22;62078;49.366;8.172;2022-10-31T21:38:59;18.60;76.50
28297;DHT22;62078;49.366;8.172;2022-10-31T21:41:26;18.60;76.50
28297;DHT22;62078;49.366;8.172;2022-10-31T21:43:52;18.60;76.50
28297;DHT22;62078;49.366;8.172;2022-10-31T21:46:29;18.60;76.50
28297;DHT22;62078;49.366;8.172;2022-10-31T21:48:56;18.60;76.50
28297;DHT22;62078;49.366;8.172;2022-10-31T21:51:30;18.60;76.40
28297;DHT22;62078;49.366;8.172;2022-10-31T21:53:57;18.60;76.60
28297;DHT22;62078;49.366;8.172;2022-10-31T21:56:41;18.60;76.50
28297;DHT22;62078;49.366;8.172;2022-10-31T21:59:07;18.60;76.50
28297;DHT22;62078;49.366;8.172;2022-10-31T22:01:33;18.60;76.40
28297;DHT22;62078;49.366;8.172;2022-10-31T22:03:59;18.60;76.50
28297;DHT22;62078;49.366;8.172;2022-10-31T22:06:26;18.60;76.40
28297;DHT22;62078;49.366;8.172;2022-10-31T22:08:54;18.60;76.40
28297;DHT22;62078;49.366;8.172;2022-10-31T22:11:20;18.60;76.40
28297;DHT22;62078;49.366;8.172;2022-10-31T22:13:47;18.60;76.40
28297;DHT22;62078;49.366;8.172;2022-10-31T22:16:15;18.60;76.40
28297;DHT22;62078;49.366;8.172;2022-10-31T22:18:42;18.60;76.40
28297;DHT22;62078;49.366;8.172;2022-10-31T22:21:11;18.60;76.50
28297;DHT22;62078;49.366;8.172;2022-10-31T22:23:37;18.60;76.40
28297;DHT22;62078;49.366;8.172;2022-10-31T22:28:33;18.60;76.40
28297;DHT22;62078;49.366;8.172;2022-10-31T22:31:06;18.60;76.30
28297;DHT22;62078;49.366;8.172;2022-10-31T22:33:32;18.60;76.30
28297;DHT22;62078;49.366;8.172;2022-10-31T22:36:02;18.60;76.40
28297;DHT22;62078;49.366;8.172;2022-10-31T22:38:29;18.60;76.70
28297;DHT22;62078;49.366;8.172;2022-10-31T22:40:59;18.60;76.50
28297;DHT22;62078;49.366;8.172;2022-10-31T22:43:25;18.60;76.40
28297;DHT22;62078;49.366;8.172;2022-10-31T22:45:58;18.60;76.60
28297;DHT22;62078;49.366;8.172;2022-10-31T22:48:30;18.60;76.90
28297;DHT22;62078;49.366;8.172;2022-10-31T22:51:17;18.60;76.60
28297;DHT22;62078;49.366;8.172;2022-10-31T22:53:44;18.60;76.60
28297;DHT22;62078;49.366;8.172;2022-10-31T22:56:12;18.60;76.60
28297;DHT22;62078;49.366;8.172;2022-10-31T22:58:37;18.60;76.50
28297;DHT22;62078;49.366;8.172;2022-10-31T23:01:09;18.60;76.50
28297;DHT22;62078;49.366;8.172;2022-10-31T23:03:35;18.60;77.30
28297;DHT22;62078;49.366;8.172;2022-10-31T23:06:02;18.60;76.60
28297;DHT22;62078;49.366;8.172;2022-10-31T23:08:29;18.60;76.50
28297;DHT22;62078;49.366;8.172;2022-10-31T23:10:55;18.60;76.60
28297;DHT22;62078;49.366;8.172;2022-10-31T23:13:21;18.60;76.50
28297;DHT22;62078;49.366;8.172;2022-10-31T23:16:06;18.60;76.50
28297;DHT22;62078;49.366;8.172;2022-10-31T23:18:33;18.60;76.50
28297;DHT22;62078;49.366;8.172;2022-10-31T23:20:59;18.60;76.50
28297;DHT22;62078;49.366;8.172;2022-10-31T23:23:26;18.50;76.50
28297;DHT22;62078;49.366;8.172;2022-10-31T23:25:52;18.60;76.50
28297;DHT22;62078;49.366;8.172;2022-10-31T23:28:36;18.50;76.50
28297;DHT22;62078;49.366;8.172;2022-10-31T23:31:01;18.50;76.50
28297;DHT22;62078;49.366;8.172;2022-10-31T23:33:28;18.60;76.50
28297;DHT22;62078;49.366;8.172;2022-10-31T23:35:54;18.60;76.50
28297;DHT22;62078;49.366;8.172;2022-10-31T23:38:19;18.60;76.50
28297;DHT22;62078;49.366;8.172;2022-10-31T23:40:45;18.50;76.50
28297;DHT22;62078;49.366;8.172;2022-10-31T23:43:10;18.60;76.50
28297;DHT22;62078;49.366;8.172;2022-10-31T23:45:36;18.50;76.40
28297;DHT22;62078;49.366;8.172;2022-10-31T23:48:02;18.50;76.50
28297;DHT22;62078;49.366;8.172;2022-10-31T23:50:28;18.50;76.50
28297;DHT22;62078;49.366;8.172;2022-10-31T23:52:53;18.50;76.50
28297;DHT22;62078;49.366;8.172;2022-10-31T23:55:19;18.60;76.50
28297;DHT22;62078;49.366;8.172;2022-10-31T23:57:45;18.60;76.50
